Hit Tracker is now ESPN Home Run Tracker! Hit Tracker founder Greg Rybarczyk is now collaborating with the ESPN Stats & Information Group to continue tracking all MLB home runs, and helping baseball fans know "How Far It Really Went!™" Please credit any information on this site to ESPN Stats & Information Group. For more information and analysis on home runs, please contact founder Greg Rybarczyk. E-Mail ESPN Home Run Tracker
Main Page | Ballparks | Park Overlays | Glossary | Highlight Homers | Feedback | Bio | 3 Types of HR's | AAA Home Run Derby Last Updated: July 23, 2017, 8:31 pm PST
If you want to know "How Far It Really Went!", then you've come to the right place! Welcome to the ESPN Home Run Tracker, where you can find accurate, transparently verifiable distances for every home run hit in MLB games. Please also check out the ESPN MLB Scoreboard throughout the 2017 season! Contact us at grybar@hittrackeronline.com.
Season:
Ballpark detail for Dodger Stadium
Ballpark # of Home Runs HR per game Avg.
True
Distance
Avg.
Speed
Off
Bat
Avg.
Std.
Dist.
Dodger Stadium 137 2.54 399.7 103.3 397.3

Scatter Plot of Home Runs Dodger Stadium
 Overlay Ballpark:
Without range rings   With range rings

2017 Season Home Runs for Dodger Stadium
Click headers to sort
Date Video Path Hitter Hitter
Team
Pitcher Pitcher
Team
INN Ballpark Type/
Luck
True
Dist.
Speed
Off
Bat
Elev.
Angle
Horiz.
Angle
Apex Impact Due To: Std.
Dist.
#
Parks
Wind Temp. ^ Alt.
04/17/17 Video View Hernandez, Enrique LAD Ray, Robbie ARI 4 Dodger Stadi... PL 382 103.8 36.1 116.4 129 0 -2 3 380 30
05/09/17 Video View Jaso, John PIT Baez, Pedro LAD 8 Dodger Stadi... JE 368 101.4 37.4 66.8 135 2 -2 3 365 28
04/14/17 Video View Toles, Andrew LAD Delgado, Randall ARI 8 Dodger Stadi... JE 406 100.2 28.9 88.1 100 1 -1 1 405 8
04/15/17 Video View Puig, Yasiel LAD Rodney, Fernando ARI 8 Dodger Stadi... PL 390 105.8 26.5 118.7 73 0 -1 1 390 30
04/17/17 Video View Lamb, Jake ARI Hatcher, Chris LAD 8 Dodger Stadi... JE 386 98.7 31.3 75.6 101 1 -1 2 384 26
04/18/17 Video View Story, Trevor COL Ryu, Hyun-Jin LAD 4 Dodger Stadi... ND 423 106.8 27.8 105.9 96 0 -1 1 422 30
04/18/17 Video View Arenado, Nolan COL Ryu, Hyun-Jin LAD 5 Dodger Stadi... PL 392 104.6 28.8 118.9 84 0 -1 1 392 30
05/08/17 Video View Taylor, Chris LAD Williams, Trevor PIT 1 Dodger Stadi... JE 400 99.4 28.5 94.9 95 0 -1 1 399 5
05/09/17 Video View Grandal, Yasmani LAD Nova, Ivan PIT 4 Dodger Stadi... PL 410 100.9 29.8 85.7 106 1 -1 1 408 16
05/10/17 Video View Cervelli, Francisco PIT Maeda, Kenta LAD 9 Dodger Stadi... JE 363 109.3 21.4 125.1 50 -1 -1 0 364 23
05/24/17 Video View Molina, Yadier STL Romo, Sergio LAD 7 Dodger Stadi... JE 381 98.6 33.2 104.0 113 0 -1 2 381 24
05/25/17 Video View Utley, Chase LAD Wacha, Michael STL 2 Dodger Stadi... JE 378 98.1 33.0 73.0 107 2 -1 2 375 25
05/26/17 Video View Gonzalez, Adrian LAD Arrieta, Jake CHC 6 Dodger Stadi... PL 426 103.6 27.9 89.0 102 1 -1 1 425 28
06/11/17 Video View Utley, Chase LAD Adleman, Tim CIN 5 Dodger Stadi... JE/L 400 96.6 31.7 89.8 101 15 -1 1 385 0
04/04/17 Video View Solarte, Yangervis SD Maeda, Kenta LAD 3 Dodger Stadi... JE 393 98.8 33.0 82.4 116 2 0 2 389 9
04/03/17 Video View Grandal, Yasmani LAD Torres, Jose SD 8 Dodger Stadi... PL 379 105.5 25.0 120.0 63 1 0 1 377 30
04/03/17 Video View Schimpf, Ryan SD Kershaw, Clayton LAD 7 Dodger Stadi... PL 393 104.1 28.0 63.8 81 2 0 1 391 30
04/03/17 Video View Seager, Corey LAD Bethancourt, Christian SD 5 Dodger Stadi... JE 397 104.8 21.4 96.4 60 -1 0 0 398 7
04/03/17 Video View Grandal, Yasmani LAD Chacin, Jhoulys SD 3 Dodger Stadi... PL 359 99.2 29.2 54.5 73 1 0 1 357 29
04/03/17 Video View Pederson, Joc LAD Chacin, Jhoulys SD 3 Dodger Stadi... PL 367 111.4 20.8 51.6 47 0 0 1 366 28
04/15/17 Video View Barnes, Austin LAD Corbin, Patrick ARI 2 Dodger Stadi... PL 369 99.5 33.8 122.2 99 1 0 1 366 30
04/18/17 Video View Arenado, Nolan COL Ryu, Hyun-Jin LAD 1 Dodger Stadi... PL 404 108.5 22.8 106.4 65 0 0 1 404 30
04/19/17 Video View Van Slyke, Scott LAD Anderson, Tyler COL 2 Dodger Stadi... JE 399 102.4 23.3 95.9 69 0 0 1 398 6
04/29/17 Video View Stassi, Brock PHI McCarthy, Brandon LAD 4 Dodger Stadi... JE 397 102.8 23.4 98.3 68 0 0 0 396 7
04/29/17 Video View Knapp, Andrew PHI Hatcher, Chris LAD 8 Dodger Stadi... JE 408 108.1 20.0 84.4 59 0 0 0 408 15
04/29/17 Video View Puig, Yasiel LAD Neris, Hector PHI 9 Dodger Stadi... PL 411 103.8 25.4 99.2 82 0 0 1 411 28
04/29/17 Video View Bellinger, Cody LAD Neris, Hector PHI 9 Dodger Stadi... ND 387 106.8 26.7 54.1 71 -1 0 1 386 30
04/29/17 Video View Turner, Justin LAD Neris, Hector PHI 9 Dodger Stadi... PL 413 105.5 30.4 109.1 106 -1 0 2 412 30
05/01/17 Video View Posey, Buster SF Kershaw, Clayton LAD 3 Dodger Stadi... JE 387 107.0 24.2 116.5 63 1 0 1 386 30
05/08/17 Video View Puig, Yasiel LAD Williams, Trevor PIT 1 Dodger Stadi... PL 405 104.9 27.4 109.8 85 1 0 1 404 30
05/10/17 Video View Bellinger, Cody LAD Kuhl, Chad PIT 1 Dodger Stadi... JE 393 102.2 24.0 101.0 70 3 0 1 390 4
05/18/17 Video View Bour, Justin MIA Ryu, Hyun-Jin LAD 2 Dodger Stadi... PL 412 108.3 25.6 67.9 76 1 0 1 410 30
05/18/17 Video View Puig, Yasiel LAD Volquez, Edinson MIA 2 Dodger Stadi... ND 438 111.5 24.1 104.3 79 0 0 1 436 30
05/18/17 Video View Yelich, Christian MIA Ryu, Hyun-Jin LAD 3 Dodger Stadi... JE 385 100.4 25.3 102.2 72 0 0 0 384 7
05/19/17 Video View Bellinger, Cody LAD Ramos, A.J. MIA 8 Dodger Stadi... JE 414 108.7 20.0 94.9 61 0 0 0 414 18
05/26/17 Video View Utley, Chase LAD Arrieta, Jake CHC 3 Dodger Stadi... JE 413 104.7 22.9 85.5 71 0 0 0 412 15
05/27/17 Video View Taylor, Chris LAD Lackey, John CHC 5 Dodger Stadi... JE 360 101.1 26.3 122.4 64 1 0 1 359 22
06/05/17 Video View Rendon, Anthony WSH Ryu, Hyun-Jin LAD 2 Dodger Stadi... PL 377 100.7 30.7 120.3 86 2 0 1 374 30
06/07/17 Video View Zimmerman, Ryan WSH Kershaw, Clayton LAD 2 Dodger Stadi... PL 372 104.1 25.8 123.6 64 1 0 1 370 30
06/07/17 Video View Seager, Corey LAD Strasburg, Stephen WSH 6 Dodger Stadi... PL 422 105.4 23.3 88.0 76 0 0 0 421 26
06/09/17 Video View Turner, Justin LAD Garrett, Amir CIN 1 Dodger Stadi... JE 371 98.2 31.5 117.0 88 4 0 1 366 26
06/09/17 Video View Hernandez, Enrique LAD Cingrani, Tony CIN 8 Dodger Stadi... JE 402 100.3 26.6 85.9 86 0 0 1 402 5
06/09/17 Video View Votto, Joey CIN Maeda, Kenta LAD 9 Dodger Stadi... JE 383 98.0 32.0 102.7 106 0 0 2 382 16
06/10/17 Video View Bellinger, Cody LAD Wojciechowski, Asher CIN 1 Dodger Stadi... PL 391 103.4 30.5 60.0 90 2 0 1 387 30
06/10/17 Video View Mesoraco, Devin CIN Fields, Josh LAD 6 Dodger Stadi... JE 398 105.8 21.8 100.2 62 0 0 0 398 15
06/11/17 Video View Duvall, Adam CIN Ryu, Hyun-Jin LAD 2 Dodger Stadi... JE 384 104.6 23.8 108.3 67 -1 0 0 386 26
06/11/17 Video View Schebler, Scott CIN Ryu, Hyun-Jin LAD 2 Dodger Stadi... JE/L 354 97.6 29.8 116.2 84 -8 0 1 361 29
06/11/17 Video View Bellinger, Cody LAD Adleman, Tim CIN 2 Dodger Stadi... PL 415 105.9 26.1 80.6 100 -12 0 1 426 29
06/11/17 Video View Votto, Joey CIN Ryu, Hyun-Jin LAD 3 Dodger Stadi... JE 385 100.8 25.4 102.7 77 -1 0 1 386 15
06/11/17 Video View Mesoraco, Devin CIN Stripling, Ross LAD 6 Dodger Stadi... PL 386 102.1 29.7 106.6 104 -14 0 1 399 30
06/11/17 Video View Bellinger, Cody LAD Brice, Austin CIN 8 Dodger Stadi... JE 410 110.6 19.1 83.8 55 0 0 0 410 15
06/11/17 Video View Seager, Corey LAD Iglesias, Raisel CIN 8 Dodger Stadi... PL 403 102.8 24.3 82.2 76 0 0 0 403 27
06/19/17 Video View Bellinger, Cody LAD Wheeler, Zack NYM 1 Dodger Stadi... PL 414 111.1 21.4 76.1 62 0 0 0 413 29
06/19/17 Video View Reyes, Jose NYM Kershaw, Clayton LAD 3 Dodger Stadi... JE 377 105.9 24.3 119.4 61 0 0 1 376 30
06/19/17 Video View Bruce, Jay NYM Kershaw, Clayton LAD 4 Dodger Stadi... JE 403 101.5 24.8 85.4 77 0 0 0 402 7
06/19/17 Video View Cecchini, Gavin NYM Kershaw, Clayton LAD 5 Dodger Stadi... JE 379 101.5 28.3 116.3 79 0 0 1 378 30
06/19/17 Video View Reyes, Jose NYM Kershaw, Clayton LAD 7 Dodger Stadi... PL 388 101.8 29.5 113.4 89 0 0 2 386 30
06/19/17 Video View Taylor, Chris LAD Salas, Fernando NYM 7 Dodger Stadi... PL 413 104.1 29.4 105.0 102 0 0 1 411 30
06/22/17 Video View Hernandez, Enrique LAD Matz, Steven NYM 3 Dodger Stadi... PL 408 105.8 25.7 72.3 77 1 0 1 406 30
06/22/17 Video View Pederson, Joc LAD Sewald, Paul NYM 7 Dodger Stadi... ND 432 107.3 26.6 78.6 95 -1 0 1 431 29
06/23/17 Video View Puig, Yasiel LAD Freeland, Kyle COL 4 Dodger Stadi... ND 446 108.0 25.3 93.3 93 1 0 1 444 30
06/27/17 Video View Pederson, Joc LAD Alvarez, Jose LAA 6 Dodger Stadi... JE 408 101.2 25.7 89.2 83 0 0 1 407 2
07/06/17 Video View Forsythe, Logan LAD Ray, Robbie ARI 5 Dodger Stadi... JE 397 101.1 24.4 84.2 72 0 0 0 396 3
07/07/17 Video View Puig, Yasiel LAD Hammel, Jason KC 6 Dodger Stadi... ND 423 109.2 24.7 106.7 80 0 0 1 422 30
07/08/17 Video View Perez, Salvador KC Baez, Pedro LAD 8 Dodger Stadi... JE 402 102.5 23.2 94.0 70 0 0 0 402 2
07/21/17 Video View Freeman, Freddie ATL Wood, Alex LAD 5 Dodger Stadi... JE 390 103.1 23.6 102.3 66 0 0 0 390 15
04/06/17 Video View Myers, Wil SD McCarthy, Brandon LAD 6 Dodger Stadi... JE 395 100.2 27.2 78.6 81 2 1 1 392 18
04/06/17 Video View Puig, Yasiel LAD Weaver, Jered SD 4 Dodger Stadi... JE 379 109.5 22.1 118.9 54 0 1 0 378 29
04/05/17 Video View Puig, Yasiel LAD Cahill, Trevor SD 4 Dodger Stadi... PL 379 101.7 34.4 119.0 111 0 1 2 377 30
04/05/17 Video View Renfroe, Hunter SD Hill, Rich LAD 4 Dodger Stadi... PL 402 101.6 34.0 99.8 128 3 1 2 397 25
04/15/17 Video View Ahmed, Nick ARI Maeda, Kenta LAD 2 Dodger Stadi... JE 387 98.1 30.5 103.3 95 3 1 1 382 16
04/16/17 Video View Iannetta, Chris ARI Hill, Rich LAD 3 Dodger Stadi... JE 409 100.5 27.4 91.0 90 2 1 1 406 4
04/29/17 Video View Toles, Andrew LAD Eflin, Zach PHI 1 Dodger Stadi... PL 426 107.4 22.0 87.3 70 0 1 1 426 28
04/29/17 Video View Bellinger, Cody LAD Eflin, Zach PHI 7 Dodger Stadi... PL 403 104.3 30.4 66.1 97 1 1 1 399 30
04/30/17 Video View Herrera, Odubel PHI Dayton, Grant LAD 9 Dodger Stadi... PL 432 107.2 24.4 82.4 80 1 1 1 430 28
05/01/17 Video View Pence, Hunter SF Kershaw, Clayton LAD 1 Dodger Stadi... PL 407 105.2 26.4 108.2 80 1 1 1 404 30
05/02/17 Video View Gutierrez, Franklin LAD Moore, Matt SF 2 Dodger Stadi... ND 447 108.5 24.2 90.9 88 0 1 1 446 30
05/19/17 Video View Taylor, Chris LAD Nicolino, Justin MIA 3 Dodger Stadi... PL 385 99.3 30.0 71.5 90 1 1 1 381 27
05/19/17 Video View Eibner, Brett LAD Nicolino, Justin MIA 4 Dodger Stadi... PL 403 100.8 27.0 97.8 86 0 1 1 401 17
05/19/17 Video View Bour, Justin MIA Hatcher, Chris LAD 9 Dodger Stadi... PL 387 99.1 34.1 78.0 120 2 1 2 383 20
05/20/17 Video View Riddle, J.T. MIA Fields, Josh LAD 5 Dodger Stadi... JE 399 105.5 21.3 82.8 60 0 1 0 399 11
05/20/17 Video View Hernandez, Enrique LAD Straily, Dan MIA 5 Dodger Stadi... JE 400 101.5 25.5 99.0 77 1 1 0 398 12
05/20/17 Video View Seager, Corey LAD Garcia, Jarlin MIA 7 Dodger Stadi... PL 408 105.5 22.8 98.6 68 1 1 0 407 19
05/20/17 Video View Bellinger, Cody LAD Garcia, Jarlin MIA 7 Dodger Stadi... PL 384 102.4 28.4 63.1 79 1 1 1 382 29
05/21/17 Video View Bour, Justin MIA Jansen, Kenley LAD 9 Dodger Stadi... JE 394 100.4 25.5 98.9 74 1 1 0 392 5
05/23/17 Video View Grandal, Yasmani LAD Lynn, Lance STL 1 Dodger Stadi... PL 426 104.3 25.4 89.9 86 1 1 1 424 28
05/28/17 Video View Bellinger, Cody LAD Lester, Jon CHC 2 Dodger Stadi... PL 415 102.5 28.0 82.3 96 0 1 1 413 28
05/28/17 Video View Contreras, Willson CHC Kershaw, Clayton LAD 2 Dodger Stadi... PL 403 102.6 25.2 80.0 76 1 1 0 401 23
05/28/17 Video View Hernandez, Enrique LAD Lester, Jon CHC 3 Dodger Stadi... PL 411 107.0 23.6 103.5 70 0 1 1 409 30
05/28/17 Video View Baez, Javier CHC Kershaw, Clayton LAD 4 Dodger Stadi... PL 413 107.1 26.1 109.6 80 0 1 1 411 30
05/28/17 Video View Barnes, Austin LAD Montgomery, Mike CHC 5 Dodger Stadi... PL 408 101.5 27.8 98.8 92 0 1 1 405 25
05/28/17 Video View Puig, Yasiel LAD Rondon, Hector CHC 7 Dodger Stadi... ND 444 108.7 24.9 96.9 89 0 1 1 442 30
06/19/17 Video View Turner, Justin LAD Wheeler, Zack NYM 2 Dodger Stadi... PL 407 105.1 28.0 110.5 88 0 1 1 405 30
06/19/17 Video View Bellinger, Cody LAD Wheeler, Zack NYM 2 Dodger Stadi... PL 420 103.2 27.7 83.6 97 0 1 1 418 26
06/20/17 Video View Seager, Corey LAD Gsellman, Robert NYM 1 Dodger Stadi... JE 412 101.3 26.7 89.1 88 0 1 1 409 15
06/20/17 Video View Seager, Corey LAD Gsellman, Robert NYM 4 Dodger Stadi... JE 378 99.8 27.2 109.0 75 0 1 1 376 19
06/20/17 Video View Grandal, Yasmani LAD Gsellman, Robert NYM 5 Dodger Stadi... PL 365 98.6 31.6 122.5 86 0 1 1 362 30
06/20/17 Video View Seager, Corey LAD Edgin, Josh NYM 5 Dodger Stadi... JE 378 98.1 29.0 106.9 84 0 1 1 375 16
06/21/17 Video View Grandal, Yasmani LAD Ramirez, Neil NYM 8 Dodger Stadi... PL 408 102.1 26.1 82.3 83 0 1 1 406 21
06/22/17 Video View Granderson, Curtis NYM Ryu, Hyun-Jin LAD 1 Dodger Stadi... PL 399 100.6 28.0 78.3 88 1 1 1 396 25
06/22/17 Video View Turner, Justin LAD Matz, Steven NYM 3 Dodger Stadi... PL 407 104.3 28.6 109.2 91 1 1 1 405 30
06/22/17 Video View d'Arnaud, Travis NYM Ryu, Hyun-Jin LAD 4 Dodger Stadi... PL 402 100.0 33.1 97.6 119 4 1 2 395 15
06/24/17 Video View Pederson, Joc LAD Chatwood, Tyler COL 3 Dodger Stadi... PL 430 104.3 27.0 88.7 96 1 1 1 427 28
06/25/17 Video View Hernandez, Enrique LAD Anderson, Tyler COL 3 Dodger Stadi... JE 406 103.7 23.3 83.7 69 0 1 1 405 15
06/26/17 Video View Maldonado, Martin LAA Romo, Sergio LAD 9 Dodger Stadi... PL 394 110.5 23.2 119.3 61 0 1 1 393 30
07/04/17 Video View Turner, Justin LAD Corbin, Patrick ARI 3 Dodger Stadi... JE 410 101.0 26.7 89.3 87 0 1 1 407 8
07/04/17 Video View Descalso, Daniel ARI Jansen, Kenley LAD 9 Dodger Stadi... JE 388 102.0 25.8 72.8 73 1 1 1 386 27
07/06/17 Video View Lamb, Jake ARI Avilan, Luis LAD 8 Dodger Stadi... PL 412 104.2 28.0 74.8 91 0 1 1 410 30
07/08/17 Video View Bellinger, Cody LAD Soria, Joakim KC 8 Dodger Stadi... PL 398 105.4 23.8 105.2 67 0 1 0 397 28
07/20/17 Video View Grandal, Yasmani LAD Foltynewicz, Mike ATL 6 Dodger Stadi... JE 385 104.3 22.9 75.3 60 0 1 0 385 8
07/21/17 Video View Garcia, Jaime ATL Wood, Alex LAD 5 Dodger Stadi... PL 406 101.8 27.3 80.1 88 1 1 1 404 27
07/21/17 Video View Flowers, Tyler ATL Dayton, Grant LAD 6 Dodger Stadi... ND 445 108.5 24.0 92.5 86 0 1 1 444 30
07/22/17 Video View Utley, Chase LAD Teheran, Julio ATL 3 Dodger Stadi... JE 377 102.7 26.3 63.0 68 1 1 1 375 29
07/22/17 Video View Taylor, Chris LAD Teheran, Julio ATL 7 Dodger Stadi... PL 404 101.8 27.0 79.1 85 1 1 1 402 27
04/06/17 Video View Puig, Yasiel LAD Weaver, Jered SD 2 Dodger Stadi... PL 412 105.3 32.6 114.4 111 6 2 2 402 30
04/30/17 Video View Taylor, Chris LAD Pivetta, Nick PHI 2 Dodger Stadi... PL 405 101.7 28.2 103.9 87 3 2 1 399 30
04/30/17 Video View Toles, Andrew LAD Gomez, Jeanmar PHI 6 Dodger Stadi... PL 410 100.2 29.3 84.2 97 3 2 1 403 15
06/20/17 Video View Bellinger, Cody LAD Gsellman, Robert NYM 1 Dodger Stadi... JE 378 98.8 30.8 68.3 91 0 2 1 374 27
06/21/17 Video View Puig, Yasiel LAD Pill, Tyler NYM 4 Dodger Stadi... PL 413 102.5 28.7 100.5 97 1 2 1 409 30
06/21/17 Video View Grandal, Yasmani LAD Pill, Tyler NYM 6 Dodger Stadi... JE 384 98.7 34.6 77.4 121 1 2 2 379 13
07/06/17 Video View Lamb, Jake ARI Hill, Rich LAD 5 Dodger Stadi... ND 429 111.2 28.9 60.4 94 1 2 1 425 30
07/06/17 Video View Marte, Ketel ARI Avilan, Luis LAD 8 Dodger Stadi... ND 440 110.2 29.3 108.6 109 1 2 2 436 30
07/20/17 Video View Suzuki, Kurt ATL McCarthy, Brandon LAD 4 Dodger Stadi... JE 369 97.7 33.0 114.7 98 1 2 1 365 25
07/22/17 Video View Seager, Corey LAD Teheran, Julio ATL 1 Dodger Stadi... PL 434 105.7 25.9 85.1 91 0 2 1 431 28
07/23/17 Video View Barnes, Austin LAD Newcomb, Sean ATL 4 Dodger Stadi... PL 367 108.7 22.3 128.6 51 0 2 1 365 28
05/28/17 Video View Rizzo, Anthony CHC Kershaw, Clayton LAD 4 Dodger Stadi... ND 418 106.2 31.7 70.4 115 0 3 2 413 30
06/21/17 Video View Granderson, Curtis NYM Hill, Rich LAD 1 Dodger Stadi... PL 404 99.8 30.6 82.4 104 2 3 2 399 15
06/25/17 Video View Bellinger, Cody LAD Ottavino, Adam COL 8 Dodger Stadi... ND 418 108.6 26.3 67.1 79 2 3 1 413 30
07/09/17 Video View Turner, Justin LAD Duffy, Danny KC 1 Dodger Stadi... JE 411 100.3 29.2 90.8 100 -1 3 1 407 10
07/08/17 Video View Pederson, Joc LAD Kennedy, Joc KC 2 Dodger Stadi... PL 414 105.0 28.2 70.7 88 2 4 1 407 30
07/09/17 Video View Hosmer, Eric KC Kershaw, Clayton LAD 4 Dodger Stadi... JE/L 387 97.0 29.8 100.9 88 3 4 1 379 4
07/23/17 Video View Adams, Matt ATL Jansen, Kenley LAD 9 Dodger Stadi... PL 363 96.7 35.1 60.7 102 4 4 2 353 24
07/09/17 Video View Barnes, Austin LAD Duffy, Danny KC 6 Dodger Stadi... PL 415 102.6 30.3 104.7 100 4 5 1 404 30
06/25/17 Video View Bellinger, Cody LAD Anderson, Tyler COL 3 Dodger Stadi... PL 427 103.9 31.3 79.7 114 5 6 2 416 29
07/23/17 Video View Bellinger, Cody LAD Brothers, Rex ATL 8 Dodger Stadi... PL 380 99.4 35.1 65.3 112 5 6 2 368 28
05/21/17 Video View Pederson, Joc LAD Worley, Vance MIA 4 Dodger Stadi... PL 374 100.7 36.4 66.9 126 -4 7 3 368 29
07/09/17 Video View Turner, Justin LAD Duffy, Danny KC 3 Dodger Stadi... JE/L 405 99.4 34.4 94.3 123 7 7 2 390 1


About HitTracker | Contact Us
© 2006-2017 HitTrackerOnline